createdAt,value
2022-10-09T09:15:08.817Z,7.50
2022-10-09T09:17:45.274Z,6.20
2022-10-09T09:20:16.655Z,6.00
2022-10-09T09:22:47.946Z,6.30
2022-10-09T09:25:20.146Z,5.00
2022-10-09T09:27:47.716Z,7.70
2022-10-09T09:30:19.593Z,5.80
2022-10-09T09:33:13.036Z,9.90
2022-10-09T09:35:49.600Z,9.70
2022-10-09T09:38:19.835Z,6.10
2022-10-09T09:40:47.599Z,8.60
2022-10-09T09:43:23.263Z,6.90
2022-10-09T09:45:55.750Z,8.30
2022-10-09T09:48:33.799Z,5.60
2022-10-09T09:51:26.711Z,6.30
2022-10-09T09:53:56.518Z,7.00
2022-10-09T09:56:59.859Z,7.00
2022-10-09T09:59:40.168Z,9.80
2022-10-09T10:02:24.127Z,7.60
2022-10-09T10:04:59.177Z,5.30
2022-10-09T10:07:35.006Z,7.00
2022-10-09T10:10:22.494Z,5.30
2022-10-09T10:12:53.333Z,7.00
2022-10-09T10:15:38.451Z,8.00
2022-10-09T10:18:06.024Z,6.70
2022-10-09T10:20:35.892Z,4.90
2022-10-09T10:23:02.937Z,7.30
2022-10-09T10:25:32.654Z,7.60
2022-10-09T10:28:13.384Z,5.10
2022-10-09T10:30:42.759Z,5.60
2022-10-09T10:33:24.883Z,6.60
2022-10-09T10:35:53.168Z,6.40
2022-10-09T10:38:41.192Z,5.30
2022-10-09T10:41:31.105Z,5.30
2022-10-09T10:44:07.834Z,6.90
2022-10-09T10:46:42.093Z,6.90
2022-10-09T10:49:09.665Z,5.80
2022-10-09T10:51:45.778Z,5.40
2022-10-09T10:54:16.779Z,5.10
2022-10-09T10:57:20.390Z,6.00
2022-10-09T10:59:49.118Z,6.10
2022-10-09T11:03:07.661Z,4.50
2022-10-09T11:05:47.694Z,5.80
2022-10-09T11:08:31.327Z,4.90
2022-10-09T11:11:23.406Z,5.90
2022-10-09T11:13:56.671Z,5.90
2022-10-09T11:16:39.727Z,6.80
2022-10-09T11:19:06.811Z,6.10
2022-10-09T11:21:53.155Z,6.00
2022-10-09T11:24:47.368Z,4.70
2022-10-09T11:27:19.271Z,7.50
2022-10-09T11:30:01.042Z,6.60
2022-10-09T11:32:32.076Z,5.60
2022-10-09T11:35:40.323Z,11.40
2022-10-09T11:38:25.468Z,9.80
2022-10-09T11:40:53.098Z,6.60
2022-10-09T11:43:26.010Z,8.90
2022-10-09T11:46:22.305Z,5.40
2022-10-09T11:49:05.161Z,7.50
2022-10-09T11:52:09.777Z,6.90
2022-10-09T11:54:37.091Z,6.00
2022-10-09T11:57:11.644Z,5.80
2022-10-09T11:59:45.238Z,5.40
2022-10-09T12:02:24.028Z,7.50
2022-10-09T12:04:56.178Z,8.10
2022-10-09T12:07:35.958Z,14.80
2022-10-09T12:10:06.149Z,9.00
2022-10-09T12:12:34.988Z,7.60
2022-10-09T12:15:24.547Z,7.30
2022-10-09T12:17:52.234Z,9.60
2022-10-09T12:20:21.719Z,31.30
2022-10-09T12:23:14.311Z,17.20
2022-10-09T12:25:44.271Z,5.60
2022-10-09T12:28:46.566Z,7.80
2022-10-09T12:31:30.878Z,6.30
2022-10-09T12:34:18.989Z,8.10
2022-10-09T12:36:45.913Z,6.40
2022-10-09T12:39:23.707Z,5.90
2022-10-09T12:41:52.397Z,7.80
2022-10-09T12:44:29.344Z,6.00
2022-10-09T12:47:05.840Z,9.60
2022-10-09T12:49:32.816Z,8.80
2022-10-09T12:52:00.529Z,7.50
2022-10-09T12:54:28.844Z,7.20
2022-10-09T12:56:56.894Z,9.80
2022-10-09T12:59:25.161Z,8.20
2022-10-09T13:01:55.532Z,10.10
2022-10-09T13:04:28.316Z,9.50
2022-10-09T13:06:56.900Z,8.20
2022-10-09T13:09:37.753Z,8.60
2022-10-09T13:12:09.589Z,8.10
2022-10-09T13:15:04.335Z,9.40
2022-10-09T13:17:37.239Z,11.00
2022-10-09T13:20:30.889Z,11.10
2022-10-09T13:22:59.415Z,9.40
2022-10-09T13:25:33.095Z,7.50
2022-10-09T13:28:00.250Z,9.60
2022-10-09T13:30:28.524Z,10.50
2022-10-09T13:32:55.723Z,10.20
2022-10-09T13:35:22.758Z,11.00
2022-10-09T13:37:49.943Z,6.20
2022-10-09T13:40:20.005Z,12.40
2022-10-09T13:42:52.131Z,8.40
2022-10-09T13:45:19.141Z,7.90
2022-10-09T13:47:46.454Z,10.30
2022-10-09T13:50:14.373Z,7.70
2022-10-09T13:52:41.280Z,7.20
2022-10-09T13:55:08.801Z,8.10
2022-10-09T13:57:36.636Z,12.40
2022-10-09T14:00:07.151Z,7.90
2022-10-09T14:02:34.579Z,7.30
2022-10-09T14:05:01.587Z,10.90
2022-10-09T14:07:30.396Z,8.20
2022-10-09T14:09:57.613Z,7.50
2022-10-09T14:12:24.974Z,7.10
2022-10-09T14:14:54.203Z,10.60
2022-10-09T14:17:21.415Z,6.60
2022-10-09T14:19:48.497Z,8.50
2022-10-09T14:22:15.570Z,11.50
2022-10-09T14:24:43.635Z,8.80
2022-10-09T14:27:11.021Z,10.80
2022-10-09T14:29:38.591Z,11.60
2022-10-09T14:32:05.962Z,11.10
2022-10-09T14:34:34.573Z,11.70
2022-10-09T14:37:04.905Z,9.50
2022-10-09T14:39:34.517Z,10.60
2022-10-09T14:42:01.862Z,15.00
2022-10-09T14:44:31.685Z,10.10
2022-10-09T14:46:59.336Z,13.50
2022-10-09T14:49:26.240Z,12.30
2022-10-09T14:51:54.297Z,11.90
2022-10-09T14:54:23.790Z,17.70
2022-10-09T14:56:50.882Z,16.40
2022-10-09T14:59:17.918Z,18.80
2022-10-09T15:01:44.929Z,16.80
2022-10-09T15:04:14.248Z,12.60
2022-10-09T15:06:41.223Z,16.00
2022-10-09T15:09:08.141Z,14.80
2022-10-09T15:11:35.359Z,17.50
2022-10-09T15:14:02.844Z,19.00
2022-10-09T15:16:30.195Z,18.40
2022-10-09T15:18:57.146Z,18.50
2022-10-09T15:21:29.430Z,16.90
2022-10-09T15:23:57.267Z,20.30
2022-10-09T15:26:25.722Z,18.70
2022-10-09T15:28:52.769Z,17.60
2022-10-09T15:31:22.826Z,16.70
2022-10-09T15:33:54.251Z,17.10
2022-10-09T15:36:25.431Z,15.10
2022-10-09T15:38:52.642Z,17.30
2022-10-09T15:41:24.721Z,18.50
2022-10-09T15:43:52.592Z,21.60
2022-10-09T15:46:19.542Z,16.70
2022-10-09T15:48:47.965Z,13.00
2022-10-09T15:51:15.112Z,18.40
2022-10-09T15:53:43.256Z,12.60
2022-10-09T15:56:12.418Z,15.70
2022-10-09T15:58:39.371Z,15.40
2022-10-09T16:01:08.694Z,15.00
2022-10-09T16:03:37.226Z,15.80
2022-10-09T16:06:05.838Z,18.50
2022-10-09T16:08:32.853Z,13.70
2022-10-09T16:10:59.900Z,13.20
2022-10-09T16:13:28.302Z,19.80
2022-10-09T16:15:55.451Z,17.00
2022-10-09T16:18:23.201Z,23.40
2022-10-09T16:20:50.710Z,25.00
2022-10-09T16:23:17.804Z,21.40
2022-10-09T16:25:45.406Z,24.60
2022-10-09T16:28:17.198Z,26.40
2022-10-09T16:30:45.644Z,22.10
2022-10-09T16:33:13.098Z,25.20
2022-10-09T16:35:40.403Z,26.90
2022-10-09T16:38:07.309Z,25.80
2022-10-09T16:41:00.942Z,22.90
2022-10-09T16:43:21.664Z,21.30
2022-10-09T16:45:49.695Z,22.80
2022-10-09T16:48:16.591Z,25.30
2022-10-09T16:50:43.688Z,20.10
2022-10-09T16:53:10.734Z,20.00
2022-10-09T16:55:38.068Z,20.10
2022-10-09T16:58:05.248Z,18.60
2022-10-09T17:00:32.595Z,16.80
2022-10-09T17:02:59.522Z,24.00
2022-10-09T17:05:26.820Z,19.10
2022-10-09T17:07:54.606Z,25.30
2022-10-09T17:10:21.627Z,24.50
2022-10-09T17:12:48.504Z,23.60
2022-10-09T17:15:15.588Z,24.80
2022-10-09T17:17:44.117Z,16.80
2022-10-09T17:20:11.077Z,18.40
2022-10-09T17:22:38.047Z,19.70
2022-10-09T17:25:06.339Z,20.10
2022-10-09T17:27:33.533Z,20.40
2022-10-09T17:30:00.484Z,26.90
2022-10-09T17:32:27.463Z,23.50
2022-10-09T17:34:54.289Z,24.00
2022-10-09T17:37:21.701Z,25.80
2022-10-09T17:39:52.022Z,24.90
2022-10-09T17:42:19.433Z,27.80
2022-10-09T17:44:46.975Z,24.50
2022-10-09T17:47:13.953Z,23.80
2022-10-09T17:49:41.243Z,23.30
2022-10-09T17:52:08.229Z,23.00
2022-10-09T17:54:35.112Z,27.30
2022-10-09T17:57:05.298Z,26.40
2022-10-09T17:59:34.439Z,25.80
2022-10-09T18:02:01.341Z,27.90
2022-10-09T18:04:28.726Z,26.60
2022-10-09T18:06:55.643Z,34.30
2022-10-09T18:09:22.537Z,38.60
2022-10-09T18:11:49.427Z,31.80
2022-10-09T18:14:16.363Z,26.00
2022-10-09T18:16:44.383Z,27.60
2022-10-09T18:19:13.170Z,37.70
2022-10-09T18:21:43.649Z,29.10
2022-10-09T18:24:11.065Z,26.70
2022-10-09T18:26:38.020Z,23.90
2022-10-09T18:29:05.290Z,22.50
2022-10-09T18:31:32.331Z,32.30
2022-10-09T18:33:59.560Z,40.50
2022-10-09T18:36:31.415Z,29.70
2022-10-09T18:39:00.913Z,29.70
2022-10-09T18:41:27.901Z,24.80
2022-10-09T18:43:55.094Z,27.00
2022-10-09T18:46:24.731Z,33.30
2022-10-09T18:48:51.616Z,29.50
2022-10-09T18:51:20.378Z,27.00
2022-10-09T18:53:49.749Z,30.00
2022-10-09T18:56:17.325Z,27.10
2022-10-09T18:58:44.230Z,33.90
2022-10-09T19:01:11.229Z,30.90
2022-10-09T19:03:38.095Z,33.40
2022-10-09T19:06:06.132Z,28.50
2022-10-09T19:08:36.549Z,27.00
2022-10-09T19:11:04.327Z,24.20
2022-10-09T19:13:31.200Z,28.70
2022-10-09T19:16:00.278Z,29.80
2022-10-09T19:18:27.380Z,28.10
2022-10-09T19:20:54.250Z,27.10
2022-10-09T19:23:22.133Z,23.10
2022-10-09T19:25:50.317Z,24.60
2022-10-09T19:28:17.500Z,23.50
2022-10-09T19:30:45.135Z,28.60
2022-10-09T19:33:12.938Z,24.50
2022-10-09T19:35:46.374Z,30.80
2022-10-09T19:38:13.602Z,24.60
2022-10-09T19:40:40.538Z,22.80
2022-10-09T19:43:07.634Z,23.20
2022-10-09T19:45:34.999Z,26.90
2022-10-09T19:48:01.973Z,29.50
2022-10-09T19:50:29.346Z,28.30
2022-10-09T19:52:56.454Z,22.90
2022-10-09T19:55:26.497Z,23.40
2022-10-09T19:57:56.104Z,23.90
2022-10-09T20:00:23.042Z,26.10
2022-10-09T20:02:50.098Z,27.30
2022-10-09T20:05:17.565Z,22.90
2022-10-09T20:07:44.596Z,21.50
2022-10-09T20:10:11.509Z,21.80
2022-10-09T20:12:38.551Z,22.20
2022-10-09T20:15:07.262Z,25.90
2022-10-09T20:17:35.199Z,21.20
2022-10-09T20:20:04.681Z,23.20
2022-10-09T20:22:32.059Z,23.00
2022-10-09T20:24:59.127Z,22.00
2022-10-09T20:27:26.059Z,19.70
2022-10-09T20:29:54.104Z,22.00
2022-10-09T20:32:25.607Z,15.30
2022-10-09T20:34:54.176Z,16.30
2022-10-09T20:37:21.067Z,20.30
2022-10-09T20:39:49.276Z,24.00
2022-10-09T20:42:18.364Z,22.30
2022-10-09T20:47:15.201Z,26.80
2022-10-09T20:49:43.837Z,28.60
2022-10-09T20:52:10.686Z,33.00
2022-10-09T20:54:39.456Z,33.70
2022-10-09T20:57:06.394Z,37.90
2022-10-09T20:59:33.453Z,30.00
2022-10-09T21:02:02.730Z,26.20
2022-10-09T21:04:31.665Z,28.40
2022-10-09T21:06:58.612Z,28.60
2022-10-09T21:09:32.955Z,27.30
2022-10-09T21:12:03.736Z,29.50
2022-10-09T21:14:30.812Z,29.60
2022-10-09T21:16:57.830Z,29.60
2022-10-09T21:19:26.576Z,25.90
2022-10-09T21:21:53.599Z,29.60
2022-10-09T21:24:20.518Z,32.80
2022-10-09T21:26:48.985Z,33.00
2022-10-09T21:29:16.035Z,29.20
2022-10-09T21:31:43.039Z,25.90
2022-10-09T21:34:10.336Z,30.10
2022-10-09T21:37:15.951Z,33.10
2022-10-09T21:39:34.853Z,33.50
2022-10-09T21:42:01.885Z,33.50
2022-10-09T21:44:30.272Z,34.90
2022-10-09T21:46:57.134Z,34.90
2022-10-09T21:52:26.759Z,33.00
2022-10-09T21:54:53.653Z,35.20
2022-10-09T21:57:20.842Z,35.20
2022-10-09T21:59:48.545Z,35.90
2022-10-09T22:02:15.668Z,33.90
2022-10-09T22:04:42.597Z,29.20
2022-10-09T22:10:04.068Z,30.50
2022-10-09T22:12:34.090Z,29.70
2022-10-09T22:15:04.508Z,24.60
2022-10-09T22:17:35.066Z,28.40
2022-10-09T22:23:14.935Z,24.30
2022-10-09T22:28:30.897Z,21.80
2022-10-09T22:31:01.794Z,25.00
2022-10-09T22:33:29.131Z,24.00
2022-10-09T22:36:26.503Z,25.20
2022-10-09T22:38:55.484Z,26.80
2022-10-09T22:41:22.816Z,30.80
2022-10-09T22:43:51.655Z,26.10
2022-10-09T22:46:23.754Z,30.30
2022-10-09T22:48:51.087Z,28.60
2022-10-09T22:51:19.336Z,33.80
2022-10-09T22:53:46.693Z,31.30
2022-10-09T22:56:15.337Z,34.30
2022-10-09T22:58:42.925Z,31.20
2022-10-09T23:01:15.456Z,32.00
2022-10-09T23:06:39.320Z,27.50
2022-10-09T23:09:07.088Z,27.70
2022-10-09T23:11:35.965Z,29.00
2022-10-09T23:14:03.187Z,26.20
2022-10-09T23:19:26.867Z,25.00
2022-10-09T23:21:53.914Z,27.80
2022-10-09T23:24:20.828Z,30.80
2022-10-09T23:26:50.408Z,27.00
2022-10-09T23:29:18.612Z,25.40
2022-10-09T23:31:45.547Z,26.70
2022-10-09T23:34:13.385Z,21.60
2022-10-09T23:36:40.944Z,23.80
2022-10-09T23:44:55.929Z,21.60
2022-10-09T23:47:22.838Z,18.10
2022-10-09T23:49:49.707Z,16.30
2022-10-09T23:52:17.078Z,16.40
2022-10-09T23:54:43.998Z,18.70
2022-10-09T23:57:11.160Z,18.40
2022-10-09T23:59:39.530Z,28.50
